Terminal Aerodrome Forecast
Issued by NWS

Home | Current Version | Previous Version | Graphics & Text | Print | Product List | Glossary On
Versions: 1 2 3 4 5 6 7 8 9 10 11 12 13 14 15 16
385
FTUS42 KMHX 280547
TAFISO
TAF
KISO 280547Z 2806/2906 VRB03KT 6SM BR BKN150
     FM280800 00000KT 2SM BR SCT003 BKN120
     FM280900 00000KT 1/2SM FG SCT003 BKN070
     FM281300 VRB03KT 2SM BR BKN070
     FM281500 16007KT P6SM BKN070
      AMD LTD TO CLD VIS AND WIND=

USA.gov is the U.S. government's official web portal to all federal, state and local government web resources and services.